Hlavní strana
METAR-TAF:

METAR-TAF

Letiště :

Key Lake, Saskatchewan, Kanada

zeměpisná šířka: 57-15N, zeměpisná délka: 105-37W, výška: 509 m

Aktuální stav počasí

Zpráva byla vytvořena před 1 hodinou a 2 minutami, v 22:00 UTC
Severovýchodní vítr 7 kt
Teplota -19°C
Vlhkost vzduchu 77%
Tlak 1022 hPa
Viditelnost: 14.5 km
Jasno

METAR: CYKJ 152200Z AUTO 05007KT 9SM CLR M19/M22 A3019 RMK SLP279

Čas: 17:02 (23:02 UTC)

Předpověď počasí

Zpráva byla vytvořena před 4 hodinami a 24 minutami, v 18:38 UTC
Předpověď platná od 15 v 19 UTC do 15 v 24 UTC
Východní vítr 8 kt
Viditelnost: 10 km
Polojasno ve výšce 4000 ft
Dočasný
od 15 v 19 UTC do 15 v 22 UTC
Viditelnost: 4.8 km
Oblačno až skoro zataženo ve výšce 2500 ft
slabé sněžení
Od 15 v 2200 UTC
Východoseverovýchodní vítr 6 kt
Viditelnost: 10 km
Polojasno ve výšce 8000 ft

TAF: CYKJ 151838Z 1519/1524 08008KT P6SM SCT040 TEMPO 1519/1522 3SM -SN BKN025 FM152200 06006KT P6SM SCT080 RMK FCST BASED ON AUTO OBS. NXT FCST WILL BE ISSUED AT 160945Z

Stav a předpovědi počasí z více než 4 000 letišť (zprávy METAR a TAF).

Červené a žluté tečky na mapě představují dostupné meteorologické stanice.

Když kurzor umístíte na tečku, zobrazí se název stanice.

Pak kliknutím zobrazíte stav a předpověď počasí.

Chcete-li změnit mapu, kliknutím na zelené tlačítko se znaménkem +mapu přiblížíte, kliknutím na zelené tlačítko se znaménkem – mapu oddálíte a kliknutím na zelené šipky přejdete na sousední mapy.


METAR-TAF: